Time;durP1;ratioP1;P1;durP2;ratioP2;P2;SDS_P1;SDS_P2;PMS_P1;PMS_P2;Temp;Humidity;BMP_temperature;BMP_pressure;BME280_temperature;BME280_humidity;BME280_pressure;Samples;Min_cycle;Max_cycle;Signal;HPM_P1;HPM_P2
2022/07/20 00:01:37;;;;;;;;;30.75;27.00;;;;;25.65;52.03;100623.16;5016394;28;45284;-70
2022/07/20 00:04:03;;;;;;;;;34.50;28.50;;;;;25.65;51.96;100617.75;5015922;28;45214;-72
2022/07/20 00:06:29;;;;;;;;;37.00;32.75;;;;;25.19;80.57;100642.97;5016174;28;45853;-74
2022/07/20 00:11:38;;;;;;;;;33.25;31.25;;;;;23.93;71.52;100638.25;5016160;28;45375;-72
2022/07/20 00:14:04;;;;;;;;;25.25;24.50;;;;;23.93;64.97;100635.56;5016405;28;45510;-71
2022/07/20 00:16:31;;;;;;;;;28.25;28.00;;;;;23.97;64.34;100628.06;5014758;28;45548;-69
2022/07/20 00:18:57;;;;;;;;;32.75;30.50;;;;;24.10;63.82;100643.88;5015911;28;45372;-70
2022/07/20 00:21:23;;;;;;;;;34.75;29.00;;;;;24.21;62.21;100673.22;5016079;28;45469;-70
2022/07/20 00:23:48;;;;;;;;;38.25;32.50;;;;;24.32;62.03;100699.91;5016214;28;45379;-70
2022/07/20 00:26:14;;;;;;;;;29.50;29.00;;;;;24.42;61.74;100724.06;5016237;28;45339;-71
2022/07/20 00:28:39;;;;;;;;;34.50;31.00;;;;;24.57;61.59;100750.44;5014342;28;48045;-74
2022/07/20 00:31:05;;;;;;;;;31.75;29.50;;;;;24.68;61.22;100782.53;5016317;28;45327;-76
2022/07/20 00:33:31;;;;;;;;;29.00;28.50;;;;;24.74;60.49;100781.94;5016105;28;45279;-73
2022/07/20 00:35:57;;;;;;;;;29.50;28.75;;;;;24.80;59.98;100796.66;5016090;28;45191;-76
2022/07/20 00:38:23;;;;;;;;;29.00;29.00;;;;;24.83;59.33;100793.66;5015818;28;45379;-73
2022/07/20 00:40:49;;;;;;;;;31.25;29.75;;;;;24.84;59.86;100771.16;5016164;28;45245;-72
2022/07/20 00:43:14;;;;;;;;;26.25;26.25;;;;;24.79;60.39;100746.53;5015999;28;45343;-68
2022/07/20 00:45:40;;;;;;;;;33.25;31.00;;;;;24.71;61.60;100738.34;5017386;28;45231;-64
2022/07/20 00:48:06;;;;;;;;;36.00;32.75;;;;;24.58;62.32;100744.06;5019132;28;46446;-66
2022/07/20 00:50:31;;;;;;;;;33.75;30.75;;;;;24.19;64.63;100702.09;5020655;28;45236;-71
2022/07/20 00:52:57;;;;;;;;;33.25;31.00;;;;;24.11;64.03;100701.97;5021689;28;45328;-66
2022/07/20 00:55:23;;;;;;;;;35.50;31.25;;;;;23.91;65.30;100689.47;5018299;28;45438;-65
2022/07/20 00:57:48;;;;;;;;;33.50;31.50;;;;;23.64;71.30;100677.63;5016061;28;46213;-70
2022/07/20 01:00:14;;;;;;;;;36.50;32.75;;;;;23.23;79.25;100668.06;5015615;28;45490;-69
2022/07/20 01:02:40;;;;;;;;;36.00;33.50;;;;;22.86;78.36;100661.59;5015481;28;45422;-70
2022/07/20 01:05:13;;;;;;;;;35.50;31.50;;;;;22.50;82.45;100648.69;5015567;28;45632;-66
2022/07/20 01:07:48;;;;;;;;;35.25;32.50;;;;;22.00;100.00;100646.81;5015244;28;45415;-67
2022/07/20 01:10:15;;;;;;;;;44.50;37.75;;;;;21.58;100.00;100620.94;5015410;28;45391;-68
2022/07/20 01:12:49;;;;;;;;;47.50;40.50;;;;;21.31;100.00;100636.53;5015692;28;45407;-75
2022/07/20 01:15:15;;;;;;;;;48.50;41.25;;;;;21.21;99.06;100653.53;5014816;28;45451;-67
2022/07/20 01:17:41;;;;;;;;;51.00;41.00;;;;;21.16;100.00;100649.38;5015207;28;46282;-67
2022/07/20 01:20:07;;;;;;;;;46.25;39.75;;;;;21.20;100.00;100647.31;5015203;28;45439;-70
2022/07/20 01:22:32;;;;;;;;;49.00;41.25;;;;;21.22;100.00;100634.66;5015143;28;45257;-66
2022/07/20 01:24:59;;;;;;;;;51.25;42.25;;;;;21.34;100.00;100650.63;5015108;28;45541;-63
2022/07/20 01:27:24;;;;;;;;;57.50;45.00;;;;;21.39;100.00;100625.19;5046968;28;47322;-64
2022/07/20 01:29:50;;;;;;;;;55.00;45.00;;;;;21.48;100.00;100620.88;5015180;28;45352;-63
2022/07/20 01:32:15;;;;;;;;;58.00;47.50;;;;;21.61;100.00;100618.00;5015056;28;45328;-64
2022/07/20 01:34:40;;;;;;;;;58.75;48.25;;;;;21.66;100.00;100610.44;5013844;28;45481;-64
2022/07/20 01:37:06;;;;;;;;;59.25;49.00;;;;;21.77;100.00;100605.97;5014606;28;46453;-66
2022/07/20 01:39:32;;;;;;;;;59.00;47.25;;;;;21.82;100.00;100611.78;5014837;28;45360;-71
2022/07/20 01:41:57;;;;;;;;;61.00;48.75;;;;;21.90;94.51;100622.66;5015029;28;45324;-72
2022/07/20 01:44:23;;;;;;;;;61.00;49.00;;;;;22.03;90.49;100623.28;5014881;28;45337;-72
2022/07/20 01:46:49;;;;;;;;;63.00;50.67;;;;;22.16;88.68;100614.16;5014484;28;45304;-68
2022/07/20 01:49:19;;;;;;;;;60.33;48.00;;;;;22.24;87.62;100618.84;5014545;28;45464;-71
2022/07/20 01:51:45;;;;;;;;;59.25;49.00;;;;;22.31;86.29;100638.72;5014513;28;45397;-70
2022/07/20 01:54:11;;;;;;;;;61.33;49.33;;;;;22.47;85.34;100663.19;5013495;28;45310;-72
2022/07/20 01:56:39;;;;;;;;;61.50;49.75;;;;;22.55;84.56;100672.38;5014507;28;46613;-74
2022/07/20 01:59:05;;;;;;;;;60.75;50.00;;;;;22.59;83.76;100657.72;5014284;28;45518;-73
2022/07/20 02:01:30;;;;;;;;;62.00;50.67;;;;;22.60;82.71;100654.91;5014536;28;45800;-69
2022/07/20 02:03:55;;;;;;;;;59.75;49.00;;;;;22.62;82.73;100681.56;5014844;28;45348;-70
2022/07/20 02:06:21;;;;;;;;;62.33;50.00;;;;;22.65;82.12;100715.31;5014352;28;45391;-70
2022/07/20 02:08:46;;;;;;;;;62.75;50.75;;;;;22.74;81.60;100746.66;5014407;28;45360;-69
2022/07/20 02:11:11;;;;;;;;;59.67;49.00;;;;;22.80;81.50;100759.50;5014563;28;45338;-71
2022/07/20 02:13:37;;;;;;;;;63.33;51.00;;;;;22.88;80.65;100745.44;5014236;28;45265;-69
2022/07/20 02:16:15;;;;;;;;;60.33;49.00;;;;;22.91;80.01;100723.69;5013880;28;46222;-69
2022/07/20 02:18:45;;;;;;;;;60.25;48.25;;;;;22.90;80.10;100712.09;5014210;28;45245;-69
2022/07/20 02:21:11;;;;;;;;;63.00;49.67;;;;;22.92;80.63;100709.31;5014757;28;45911;-66
2022/07/20 02:23:36;;;;;;;;;56.75;46.00;;;;;22.90;80.92;100696.00;5014625;28;45277;-66
2022/07/20 02:26:02;;;;;;;;;64.00;53.67;;;;;22.88;80.67;100683.75;5012847;28;46228;-66
2022/07/20 02:28:28;;;;;;;;;64.33;53.00;;;;;22.87;81.66;100733.00;5017466;28;45277;-67
2022/07/20 02:30:53;;;;;;;;;63.00;52.00;;;;;22.86;81.69;100750.91;5018225;28;45191;-68
2022/07/20 02:33:18;;;;;;;;;65.33;52.67;;;;;22.84;81.80;100755.56;5018313;28;45324;-67
2022/07/20 02:35:44;;;;;;;;;64.00;50.00;;;;;22.80;81.84;100759.50;5017639;28;45409;-69
2022/07/20 02:38:09;;;;;;;;;63.33;51.33;;;;;22.80;81.48;100756.84;5017820;28;45302;-68
2022/07/20 02:40:34;;;;;;;;;61.00;49.00;;;;;22.83;81.81;100753.88;5017828;28;45257;-69
2022/07/20 02:43:00;;;;;;;;;61.33;50.00;;;;;22.86;81.09;100755.44;5017695;28;45337;-68
2022/07/20 02:45:25;;;;;;;;;66.33;53.00;;;;;22.92;80.46;100746.84;5017743;28;46638;-69
2022/07/20 02:47:51;;;;;;;;;62.33;49.67;;;;;22.92;79.72;100757.56;5017744;28;45351;-70
2022/07/20 02:50:17;;;;;;;;;64.67;51.00;;;;;22.99;79.24;100779.31;5017610;28;45317;-71
2022/07/20 02:52:43;;;;;;;;;65.00;51.00;;;;;23.03;78.86;100778.91;5018000;28;45576;-68
2022/07/20 02:55:09;;;;;;;;;68.00;55.67;;;;;22.97;76.88;100766.06;5017440;28;45462;-66
2022/07/20 02:57:35;;;;;;;;;65.00;53.00;;;;;22.94;76.81;100784.25;5017623;28;45367;-67
2022/07/20 03:00:01;;;;;;;;;67.00;54.67;;;;;22.88;76.38;100791.03;5018360;28;45304;-66
2022/07/20 03:02:26;;;;;;;;;67.67;53.00;;;;;22.90;76.85;100807.81;5018979;28;45338;-70
2022/07/20 03:04:52;;;;;;;;;68.00;55.00;;;;;22.96;77.82;100838.59;5017437;28;46475;-67
2022/07/20 03:07:17;;;;;;;;;64.00;52.67;;;;;23.12;77.48;100857.72;5017344;28;45354;-68
2022/07/20 03:09:43;;;;;;;;;62.33;52.00;;;;;23.23;76.61;100864.81;5015917;28;45277;-67
2022/07/20 03:12:09;;;;;;;;;65.00;51.67;;;;;23.44;76.14;100885.34;5017578;28;45827;-66
2022/07/20 03:14:34;;;;;;;;;63.67;52.33;;;;;23.62;75.99;100872.09;5016947;28;47652;-70
2022/07/20 03:16:59;;;;;;;;;56.00;44.33;;;;;23.76;75.08;100862.78;5016917;28;45349;-69
2022/07/20 03:19:25;;;;;;;;;66.67;52.33;;;;;23.84;74.50;100875.50;5017901;28;45268;-69
2022/07/20 03:21:50;;;;;;;;;66.00;53.00;;;;;23.97;74.55;100880.59;5017545;28;45382;-68
2022/07/20 03:24:16;;;;;;;;;66.00;55.33;;;;;24.02;73.64;100867.63;5016797;28;46318;-68
2022/07/20 03:26:41;;;;;;;;;64.33;52.00;;;;;24.05;72.30;100870.03;5049164;28;45923;-67
2022/07/20 03:29:06;;;;;;;;;66.33;52.67;;;;;24.05;72.69;100873.53;5017066;28;45315;-68
2022/07/20 03:31:32;;;;;;;;;63.00;50.67;;;;;24.11;72.30;100869.44;5017149;28;45438;-67
2022/07/20 03:33:57;;;;;;;;;64.00;52.33;;;;;24.12;71.37;100867.59;5016823;28;45469;-70
2022/07/20 03:36:22;;;;;;;;;65.00;54.33;;;;;24.14;70.57;100852.16;5015413;28;45351;-69
2022/07/20 03:38:48;;;;;;;;;65.00;55.00;;;;;24.01;71.71;100861.38;5014573;28;45387;-66
2022/07/20 03:41:13;;;;;;;;;62.00;50.67;;;;;24.06;72.55;100872.56;5017040;28;45375;-67
2022/07/20 03:43:38;;;;;;;;;63.00;51.67;;;;;24.13;72.36;100872.84;5016601;28;45612;-68
2022/07/20 03:46:04;;;;;;;;;65.33;54.00;;;;;24.21;72.10;100866.72;5016656;28;45325;-67
2022/07/20 03:48:29;;;;;;;;;61.00;49.67;;;;;24.25;72.25;100872.69;5015702;28;45361;-66
2022/07/20 03:50:54;;;;;;;;;64.33;52.00;;;;;24.20;71.93;100875.78;5016948;28;45264;-66
2022/07/20 03:53:20;;;;;;;;;61.00;49.33;;;;;24.14;74.69;100896.03;5016607;28;45348;-67
2022/07/20 03:55:45;;;;;;;;;62.00;51.00;;;;;24.14;74.02;100903.22;5015058;28;45288;-66
2022/07/20 03:58:10;;;;;;;;;65.67;54.33;;;;;24.12;74.77;100911.44;5016696;28;45379;-66
2022/07/20 04:00:36;;;;;;;;;65.00;54.00;;;;;24.16;75.36;100923.63;5015572;28;45378;-66
2022/07/20 04:03:01;;;;;;;;;67.67;54.33;;;;;24.17;74.98;100927.13;5016377;28;45549;-67
2022/07/20 04:05:27;;;;;;;;;63.00;51.00;;;;;24.19;75.51;100970.84;5015549;28;45458;-67
2022/07/20 04:07:52;;;;;;;;;61.75;50.75;;;;;24.19;76.71;100957.41;5016550;28;45218;-69
2022/07/20 04:10:17;;;;;;;;;61.67;50.00;;;;;24.12;74.76;100940.16;5016420;28;45222;-68
2022/07/20 04:12:43;;;;;;;;;59.00;47.75;;;;;23.98;76.34;100919.91;5016039;28;45329;-68
2022/07/20 04:15:09;;;;;;;;;63.50;50.00;;;;;23.86;77.62;100911.13;5016511;28;45266;-68
2022/07/20 04:17:34;;;;;;;;;61.33;50.67;;;;;23.91;77.62;100904.34;5016314;28;45372;-67
2022/07/20 04:20:00;;;;;;;;;54.25;43.75;;;;;23.78;76.01;100904.63;5016795;28;45510;-67
2022/07/20 04:22:25;;;;;;;;;51.50;42.75;;;;;23.67;76.39;100899.38;5015818;28;45443;-69
2022/07/20 04:24:50;;;;;;;;;51.50;43.25;;;;;23.61;75.04;100881.16;5016142;28;45377;-68
2022/07/20 04:27:16;;;;;;;;;49.25;41.25;;;;;23.53;75.64;100863.03;5016126;28;45236;-69
2022/07/20 04:29:41;;;;;;;;;46.75;37.75;;;;;23.49;73.97;100850.88;5016336;28;44828;-68
2022/07/20 04:32:07;;;;;;;;;42.25;35.25;;;;;23.50;75.47;100849.91;5015902;28;46027;-68
2022/07/20 04:34:33;;;;;;;;;37.00;33.25;;;;;23.48;71.95;100844.69;5016224;28;45782;-66
2022/07/20 04:36:58;;;;;;;;;33.75;31.75;;;;;23.41;69.99;100848.06;5048308;28;45408;-66
2022/07/20 04:39:24;;;;;;;;;39.50;33.25;;;;;23.34;69.14;100858.53;5015923;28;45316;-71
2022/07/20 04:41:49;;;;;;;;;41.75;34.00;;;;;23.29;71.26;100853.56;5015705;28;45776;-69
2022/07/20 04:44:15;;;;;;;;;32.00;29.50;;;;;23.28;69.85;100853.69;5015630;28;45250;-70
2022/07/20 04:46:40;;;;;;;;;36.75;33.00;;;;;23.24;70.37;100825.41;5015612;28;45485;-70
2022/07/20 04:49:07;;;;;;;;;36.25;31.00;;;;;23.18;69.05;100813.38;5015793;28;45456;-71
2022/07/20 04:51:33;;;;;;;;;42.50;34.25;;;;;23.12;70.80;100804.03;5015527;28;46186;-72
2022/07/20 04:53:58;;;;;;;;;38.25;33.25;;;;;23.00;70.22;100791.75;5015942;28;45229;-70
2022/07/20 04:56:24;;;;;;;;;35.75;32.00;;;;;23.03;71.15;100819.16;5015454;28;45272;-72
2022/07/20 04:58:52;;;;;;;;;36.00;32.25;;;;;23.09;70.85;100822.28;5014320;28;45624;-71
2022/07/20 05:01:18;;;;;;;;;35.00;32.25;;;;;23.09;70.08;100844.56;5015167;28;45598;-72
2022/07/20 05:03:44;;;;;;;;;41.00;35.50;;;;;23.03;70.11;100861.22;5015305;28;45807;-68
2022/07/20 05:06:09;;;;;;;;;42.50;34.00;;;;;23.07;70.15;100900.19;5015563;28;45408;-70
2022/07/20 05:08:35;;;;;;;;;44.00;35.50;;;;;23.02;70.39;100908.66;5015610;28;45446;-66
2022/07/20 05:11:00;;;;;;;;;42.25;35.25;;;;;23.07;71.19;100924.34;5016283;28;46130;-70
2022/07/20 05:13:25;;;;;;;;;41.25;34.50;;;;;23.01;71.37;100914.16;5016076;28;45407;-68
2022/07/20 05:15:51;;;;;;;;;43.00;35.25;;;;;23.04;72.61;100900.47;5015026;28;45460;-70
2022/07/20 05:18:16;;;;;;;;;37.75;32.50;;;;;22.96;71.03;100874.34;5015690;28;45585;-69
2022/07/20 05:20:41;;;;;;;;;35.50;30.75;;;;;22.93;70.54;100879.97;5015144;28;46378;-67
2022/07/20 05:23:07;;;;;;;;;29.50;28.25;;;;;22.94;69.19;100907.63;5014849;28;45340;-66
2022/07/20 05:25:33;;;;;;;;;33.75;30.25;;;;;22.90;69.60;100880.25;5013937;28;45287;-71
2022/07/20 05:27:58;;;;;;;;;29.25;28.50;;;;;22.86;68.79;100843.94;5015311;28;45260;-71
2022/07/20 05:30:24;;;;;;;;;32.75;31.00;;;;;22.82;70.14;100821.06;5014662;28;46494;-71
2022/07/20 05:32:49;;;;;;;;;31.25;28.75;;;;;22.79;70.94;100830.22;5014883;28;45282;-71
2022/07/20 05:35:14;;;;;;;;;28.25;28.25;;;;;22.72;69.20;100775.44;5014986;28;45321;-68
2022/07/20 05:37:40;;;;;;;;;29.75;28.50;;;;;22.68;69.83;100782.06;5015069;28;45383;-69
2022/07/20 05:40:07;;;;;;;;;37.00;31.50;;;;;22.63;69.77;100808.44;5015321;28;45271;-71
2022/07/20 05:42:32;;;;;;;;;29.50;27.25;;;;;22.59;69.02;100822.09;5015550;28;45587;-66
2022/07/20 05:44:57;;;;;;;;;31.50;28.50;;;;;22.53;67.41;100841.41;5014743;28;45734;-71
2022/07/20 05:47:23;;;;;;;;;25.50;24.50;;;;;22.50;68.54;100846.16;5015306;28;45457;-70
2022/07/20 05:49:48;;;;;;;;;25.25;25.25;;;;;22.51;68.02;100853.22;5013344;28;47086;-69
2022/07/20 05:52:14;;;;;;;;;26.25;25.25;;;;;22.53;67.41;100854.81;5013303;28;45348;-71
2022/07/20 05:54:40;;;;;;;;;26.50;26.50;;;;;22.52;67.58;100869.19;5013896;28;45558;-71
2022/07/20 05:57:06;;;;;;;;;29.75;27.75;;;;;22.53;68.39;100878.06;5012029;28;45383;-73
2022/07/20 05:59:31;;;;;;;;;25.50;24.25;;;;;22.51;67.69;100872.84;5014109;28;45624;-72
2022/07/20 06:01:57;;;;;;;;;25.50;24.75;;;;;22.52;67.84;100889.78;5015409;28;45367;-72
2022/07/20 06:04:22;;;;;;;;;29.25;26.00;;;;;22.54;68.87;100886.00;5017153;28;45229;-72
2022/07/20 06:06:47;;;;;;;;;27.75;27.50;;;;;22.56;68.46;100872.44;5018145;28;45690;-71
2022/07/20 06:09:13;;;;;;;;;27.50;25.75;;;;;22.59;67.34;100858.78;5018481;28;45485;-72
2022/07/20 06:11:38;;;;;;;;;29.00;25.25;;;;;22.63;68.00;100860.19;5017674;28;45230;-71
2022/07/20 06:14:03;;;;;;;;;26.50;25.00;;;;;22.61;66.57;100846.94;5018793;28;45429;-73
2022/07/20 06:16:29;;;;;;;;;28.25;26.75;;;;;22.69;67.51;100861.50;5017660;28;45224;-72
2022/07/20 06:18:55;;;;;;;;;25.00;23.50;;;;;22.74;65.84;100861.97;4999537;28;48184;-71
2022/07/20 06:21:21;;;;;;;;;25.25;25.25;;;;;22.79;66.47;100870.44;5017700;28;45411;-72
2022/07/20 06:23:46;;;;;;;;;27.50;23.75;;;;;22.88;65.25;100885.72;5017532;28;45444;-72
2022/07/20 06:26:12;;;;;;;;;29.00;27.00;;;;;22.94;65.58;100907.63;5017982;28;45402;-73
2022/07/20 06:28:37;;;;;;;;;30.50;27.75;;;;;22.96;65.44;100929.81;5017840;28;45466;-72
2022/07/20 06:31:04;;;;;;;;;24.50;24.50;;;;;22.98;65.16;100943.94;5017540;28;46113;-70
2022/07/20 06:33:29;;;;;;;;;31.25;28.25;;;;;23.04;65.49;100962.16;5017891;28;45303;-70
2022/07/20 06:35:54;;;;;;;;;30.50;29.50;;;;;23.03;65.82;100979.25;5017533;28;45625;-70
2022/07/20 06:38:20;;;;;;;;;31.25;28.75;;;;;23.13;65.19;100979.31;5017708;28;46218;-71
2022/07/20 06:40:45;;;;;;;;;30.50;28.25;;;;;23.16;65.38;100979.03;5017595;28;45402;-69
2022/07/20 06:43:11;;;;;;;;;46.75;39.25;;;;;23.15;66.49;100964.75;5017593;28;45419;-69
2022/07/20 06:45:36;;;;;;;;;44.50;38.25;;;;;23.15;65.53;100971.97;5018124;28;45566;-70
2022/07/20 06:48:02;;;;;;;;;32.50;30.75;;;;;23.07;65.93;100972.63;5016737;28;47694;-68
2022/07/20 06:50:27;;;;;;;;;26.00;26.00;;;;;23.07;64.81;100971.78;5018358;28;45251;-68
2022/07/20 06:52:53;;;;;;;;;27.75;27.75;;;;;22.95;65.74;100950.44;5016928;28;45339;-68
2022/07/20 06:55:18;;;;;;;;;31.25;29.50;;;;;22.91;65.24;100949.81;5017874;28;45532;-68
2022/07/20 06:57:44;;;;;;;;;26.50;26.25;;;;;22.87;65.61;100951.06;5017606;28;46307;-67
2022/07/20 07:00:11;;;;;;;;;30.75;29.25;;;;;22.85;65.81;100944.16;5017679;28;45373;-70
2022/07/20 07:02:36;;;;;;;;;32.00;26.25;;;;;22.79;65.50;100940.16;5017617;28;45397;-67
2022/07/20 07:05:03;;;;;;;;;27.50;24.50;;;;;22.72;65.50;100930.97;5017584;28;45229;-72
2022/07/20 07:07:29;;;;;;;;;32.00;27.25;;;;;22.63;66.30;100921.88;5017415;28;47318;-72
2022/07/20 07:09:54;;;;;;;;;28.00;26.75;;;;;22.56;67.04;100928.75;5016359;28;45767;-71
2022/07/20 07:12:20;;;;;;;;;23.25;23.25;;;;;22.45;68.76;100927.81;5016088;28;45419;-71
2022/07/20 07:14:45;;;;;;;;;26.00;24.75;;;;;22.41;70.72;100931.72;5016269;28;45417;-69
2022/07/20 07:17:11;;;;;;;;;27.25;25.00;;;;;22.35;71.36;100928.72;5016930;28;46040;-69
2022/07/20 07:19:39;;;;;;;;;30.00;29.00;;;;;22.25;73.92;100928.66;5017819;28;45244;-70
2022/07/20 07:22:04;;;;;;;;;26.25;25.50;;;;;22.15;74.91;100921.38;5020507;28;45249;-72
2022/07/20 07:24:30;;;;;;;;;33.00;29.25;;;;;22.04;74.37;100924.13;5023283;28;45443;-71
2022/07/20 07:26:55;;;;;;;;;31.25;29.00;;;;;21.97;75.23;100929.13;5021031;28;47006;-67
2022/07/20 07:29:21;;;;;;;;;30.25;29.25;;;;;21.77;75.99;100916.53;5025755;28;45527;-68
2022/07/20 07:31:46;;;;;;;;;28.25;24.75;;;;;21.71;75.62;100893.78;5020738;28;45405;-74
2022/07/20 07:34:11;;;;;;;;;26.50;26.50;;;;;21.60;76.59;100905.38;5017765;28;45482;-75
2022/07/20 07:36:37;;;;;;;;;30.00;26.75;;;;;21.49;76.47;100950.88;5017037;28;46102;-68
2022/07/20 07:39:03;;;;;;;;;30.50;27.00;;;;;21.51;77.86;100960.47;5016293;28;45432;-72
2022/07/20 07:41:28;;;;;;;;;26.75;24.50;;;;;21.52;78.39;100926.56;5018015;28;45375;-74
2022/07/20 07:43:54;;;;;;;;;28.25;26.75;;;;;21.52;79.65;100910.50;5016603;28;45399;-72
2022/07/20 07:46:20;;;;;;;;;28.00;28.00;;;;;21.61;78.02;100939.19;5017119;28;46095;-73
2022/07/20 07:48:45;;;;;;;;;30.00;26.75;;;;;21.66;77.36;100962.91;5016672;28;45479;-77
2022/07/20 07:51:11;;;;;;;;;28.25;25.50;;;;;21.69;76.19;100960.00;5017562;28;45493;-74
2022/07/20 07:53:36;;;;;;;;;28.75;25.25;;;;;21.76;75.88;100971.06;5017974;28;45293;-70
2022/07/20 07:56:01;;;;;;;;;24.50;24.50;;;;;21.86;75.43;100964.84;5017366;28;46051;-71
2022/07/20 07:58:27;;;;;;;;;26.50;26.50;;;;;22.01;75.28;100975.25;5017056;28;45458;-68
2022/07/20 08:00:52;;;;;;;;;27.00;26.00;;;;;22.10;74.74;100987.03;5018493;28;45653;-71
2022/07/20 08:03:18;;;;;;;;;28.75;27.50;;;;;22.18;74.00;100981.88;5019164;28;45673;-72
2022/07/20 08:05:43;;;;;;;;;31.75;29.00;;;;;22.21;72.02;100978.94;5017937;28;46348;-71
2022/07/20 08:08:11;;;;;;;;;35.25;29.25;;;;;22.21;70.84;100986.16;5016340;28;45812;-72
2022/07/20 08:10:40;;;;;;;;;28.00;27.25;;;;;22.22;70.27;100994.03;5017714;28;45390;-76
2022/07/20 08:13:06;;;;;;;;;30.75;27.50;;;;;22.36;71.17;100981.34;5017776;28;45677;-76
2022/07/20 08:15:32;;;;;;;;;32.75;30.00;;;;;22.58;71.11;100989.28;5016920;28;45455;-72
2022/07/20 08:17:57;;;;;;;;;34.50;29.50;;;;;22.86;70.51;100988.78;4999709;28;45754;-71
2022/07/20 08:20:23;;;;;;;;;36.75;32.50;;;;;23.09;69.64;100988.59;5017439;28;45346;-76
2022/07/20 08:22:50;;;;;;;;;35.50;30.25;;;;;23.24;67.98;100984.59;5017651;28;45193;-71
2022/07/20 08:25:16;;;;;;;;;31.00;29.00;;;;;23.28;67.86;100983.34;5016301;28;45430;-74
2022/07/20 08:27:41;;;;;;;;;28.00;27.50;;;;;23.37;66.68;101003.19;5016856;28;45295;-78
2022/07/20 08:30:07;;;;;;;;;27.75;27.75;;;;;23.37;67.17;100992.44;5016735;28;45347;-72
2022/07/20 08:32:33;;;;;;;;;29.00;28.00;;;;;23.41;66.39;101001.06;5016897;28;45293;-75
2022/07/20 08:34:58;;;;;;;;;31.25;29.25;;;;;23.40;66.49;100999.34;5016839;28;46408;-77
2022/07/20 08:37:24;;;;;;;;;28.25;26.50;;;;;23.40;66.28;100985.94;5016523;28;45369;-73
2022/07/20 08:39:49;;;;;;;;;35.25;28.25;;;;;23.43;66.02;101016.06;5016299;28;45430;-76
2022/07/20 08:42:14;;;;;;;;;27.25;27.25;;;;;23.52;66.37;101017.06;5018212;28;45647;-69
2022/07/20 08:44:41;;;;;;;;;28.75;27.50;;;;;23.51;65.18;101014.53;5016615;28;46124;-75
2022/07/20 08:47:10;;;;;;;;;33.75;27.75;;;;;23.48;65.20;101010.25;5016140;28;45445;-76
2022/07/20 08:49:38;;;;;;;;;35.00;30.25;;;;;23.48;64.68;101010.25;5016393;28;45306;-77
2022/07/20 08:52:04;;;;;;;;;30.50;28.50;;;;;23.37;64.13;101002.31;5016338;28;45576;-73
2022/07/20 08:54:32;;;;;;;;;28.75;26.00;;;;;23.33;64.57;101023.22;5016574;28;45691;-77
2022/07/20 08:56:57;;;;;;;;;28.75;28.50;;;;;23.33;65.68;101017.84;5016578;28;45336;-77
2022/07/20 08:59:22;;;;;;;;;28.75;27.50;;;;;23.34;65.69;101009.66;5016815;28;45381;-73
2022/07/20 09:02:03;;;;;;;;;29.25;27.50;;;;;23.51;66.31;101014.53;5016307;28;45573;-73
2022/07/20 09:04:29;;;;;;;;;32.00;29.50;;;;;23.67;66.04;101004.13;5014373;28;47061;-75
2022/07/20 09:06:54;;;;;;;;;30.00;27.00;;;;;23.82;64.48;101004.56;5015970;28;45476;-76
2022/07/20 09:09:21;;;;;;;;;24.75;23.25;;;;;23.85;62.98;101008.81;5016102;28;45273;-75
2022/07/20 09:11:47;;;;;;;;;30.25;27.50;;;;;23.92;63.51;101012.66;5016552;28;45920;-67
2022/07/20 09:14:13;;;;;;;;;30.00;25.75;;;;;23.92;63.62;101008.13;5015109;28;46339;-77
2022/07/20 09:16:46;;;;;;;;;27.00;26.75;;;;;24.01;62.90;100997.56;5015878;28;45273;-71
2022/07/20 09:19:13;;;;;;;;;25.50;24.50;;;;;24.14;61.78;100990.09;5016997;28;45774;-71
2022/07/20 09:21:39;;;;;;;;;29.75;28.50;;;;;24.32;61.92;100970.56;5031777;28;45462;-68
2022/07/20 09:24:07;;;;;;;;;26.50;26.50;;;;;24.44;61.56;100980.16;5014375;28;46078;-76
2022/07/20 09:26:34;;;;;;;;;21.00;21.00;;;;;24.56;61.76;100982.69;5015952;28;45342;-74
2022/07/20 09:29:03;;;;;;;;;22.00;22.00;;;;;24.65;60.23;100980.00;5016493;28;45434;-71
2022/07/20 09:31:33;;;;;;;;;25.50;25.50;;;;;24.73;60.09;100983.81;5017754;28;45300;-66
2022/07/20 09:34:00;;;;;;;;;25.50;23.00;;;;;24.84;59.76;100990.88;5023951;28;46258;-68
2022/07/20 09:36:28;;;;;;;;;21.75;21.75;;;;;24.97;58.81;101004.03;5023035;28;45328;-69
2022/07/20 09:38:53;;;;;;;;;22.25;20.00;;;;;25.01;58.45;100998.22;5027136;28;45300;-68
2022/07/20 09:41:31;;;;;;;;;22.75;21.00;;;;;25.02;57.93;100993.69;5021603;28;45243;-71
2022/07/20 09:43:58;;;;;;;;;19.25;19.25;;;;;25.04;57.18;100997.94;5016358;28;45397;-72
2022/07/20 09:46:32;;;;;;;;;21.25;20.00;;;;;24.95;57.47;101001.50;5015432;28;45534;-76
2022/07/20 09:49:16;;;;;;;;;19.00;18.25;;;;;24.76;57.41;101015.84;5015063;28;45474;-76
2022/07/20 09:51:44;;;;;;;;;19.75;19.75;;;;;24.55;58.29;101014.13;5016010;28;45490;-73
2022/07/20 09:54:15;;;;;;;;;17.00;16.25;;;;;24.40;58.51;101027.16;5015239;28;46317;-71
2022/07/20 09:56:45;;;;;;;;;14.50;14.50;;;;;24.23;58.84;101020.63;5015897;28;45334;-70
2022/07/20 09:59:12;;;;;;;;;13.75;13.75;;;;;24.06;59.07;101023.03;5015447;28;45363;-75
2022/07/20 10:01:41;;;;;;;;;16.00;13.50;;;;;23.89;59.62;101029.91;5015149;28;45680;-71
2022/07/20 10:04:09;;;;;;;;;16.50;15.00;;;;;23.78;59.81;101043.44;5015190;28;45367;-75
2022/07/20 10:06:37;;;;;;;;;15.50;15.50;;;;;23.61;60.33;101036.88;5015742;28;45528;-75
2022/07/20 10:09:04;;;;;;;;;17.00;17.00;;;;;23.58;61.02;101040.69;5015486;28;45376;-69
2022/07/20 10:11:30;;;;;;;;;14.75;14.75;;;;;23.55;61.06;101040.13;5031121;28;45584;-72
2022/07/20 10:13:58;;;;;;;;;16.00;14.50;;;;;23.51;60.88;101036.84;5015410;28;45385;-70
2022/07/20 10:16:42;;;;;;;;;17.25;15.25;;;;;23.47;60.74;101022.00;5014416;28;45687;-73
2022/07/20 10:19:10;;;;;;;;;14.00;14.00;;;;;23.58;60.70;101027.25;5014673;28;45469;-74
2022/07/20 10:21:43;;;;;;;;;18.25;16.25;;;;;23.74;61.25;101029.44;5014741;28;45518;-72
2022/07/20 10:24:25;;;;;;;;;14.75;12.50;;;;;23.93;60.61;101035.84;5014334;28;45561;-74
2022/07/20 10:26:53;;;;;;;;;11.25;11.25;;;;;24.05;59.95;101039.31;5014429;28;45347;-75
2022/07/20 10:29:42;;;;;;;;;14.00;14.00;;;;;24.13;60.20;101052.03;5015071;28;45320;-68
2022/07/20 10:32:11;;;;;;;;;13.75;13.50;;;;;24.14;59.80;101043.84;5014842;28;45450;-72
2022/07/20 10:34:39;;;;;;;;;12.50;12.50;;;;;24.15;59.71;101039.28;5014374;28;46397;-75
2022/07/20 10:37:24;;;;;;;;;14.25;14.25;;;;;24.18;60.83;101049.75;5014125;28;45404;-73
2022/07/20 10:40:08;;;;;;;;;15.75;14.00;;;;;24.26;60.41;101022.19;5014344;28;45374;-66
2022/07/20 10:42:34;;;;;;;;;12.00;11.00;;;;;24.32;60.31;101021.63;5014162;28;45571;-67
2022/07/20 10:45:27;;;;;;;;;19.25;19.25;;;;;24.31;59.49;101023.47;5013458;28;45447;-73
2022/07/20 10:48:02;;;;;;;;;17.00;16.75;;;;;24.34;60.31;101019.66;5014285;28;45494;-70
2022/07/20 10:50:27;;;;;;;;;19.25;17.00;;;;;24.36;59.73;101015.00;5017118;28;45280;-65
2022/07/20 10:52:57;;;;;;;;;16.00;14.00;;;;;24.38;59.59;101025.59;5017292;28;45349;-70
2022/07/20 10:55:35;;;;;;;;;17.25;16.75;;;;;24.33;59.89;101028.72;5017351;28;45286;-76
2022/07/20 10:58:02;;;;;;;;;22.50;21.50;;;;;24.25;60.22;101023.19;5017317;28;45459;-75
2022/07/20 11:00:32;;;;;;;;;13.50;12.00;;;;;24.22;60.08;101032.38;5017608;28;45403;-73
2022/07/20 11:03:00;;;;;;;;;11.75;10.75;;;;;24.16;60.41;101046.38;5017711;28;45617;-74
2022/07/20 11:05:26;;;;;;;;;13.50;13.50;;;;;24.04;60.06;101056.41;5017034;28;45832;-75
2022/07/20 11:07:52;;;;;;;;;12.50;10.25;;;;;23.90;60.25;101053.09;5017160;28;45497;-71
2022/07/20 11:10:24;;;;;;;;;8.50;8.50;;;;;23.81;60.19;101053.91;5018352;28;45284;-76